createdAt,value
2023-10-04T00:02:12.068Z,8.35
2023-10-04T00:04:40.274Z,9.20
2023-10-04T00:07:08.256Z,8.97
2023-10-04T00:09:36.175Z,9.65
2023-10-04T00:12:03.289Z,9.48
2023-10-04T00:14:30.000Z,7.47
2023-10-04T00:16:56.614Z,8.15
2023-10-04T00:19:23.147Z,9.45
2023-10-04T00:21:49.709Z,11.17
2023-10-04T00:24:16.354Z,8.20
2023-10-04T00:26:46.544Z,10.27
2023-10-04T00:29:13.145Z,9.07
2023-10-04T00:31:39.713Z,11.18
2023-10-04T00:34:09.731Z,10.88
2023-10-04T00:36:36.509Z,9.95
2023-10-04T00:39:04.462Z,8.77
2023-10-04T00:41:31.332Z,9.05
2023-10-04T00:43:59.841Z,10.02
2023-10-04T00:46:26.986Z,9.80
2023-10-04T00:48:57.359Z,9.88
2023-10-04T00:51:24.456Z,9.63
2023-10-04T00:53:51.695Z,11.30
2023-10-04T00:56:18.289Z,7.63
2023-10-04T00:58:46.945Z,11.10
2023-10-04T01:01:15.519Z,8.50
2023-10-04T01:03:42.650Z,13.07
2023-10-04T01:06:10.314Z,10.43
2023-10-04T01:08:36.821Z,8.85
2023-10-04T01:11:03.739Z,11.23
2023-10-04T01:13:30.438Z,10.10
2023-10-04T01:15:58.401Z,13.18
2023-10-04T01:18:25.225Z,12.37
2023-10-04T01:20:52.967Z,11.75
2023-10-04T01:23:19.955Z,8.90
2023-10-04T01:25:47.910Z,16.70
2023-10-04T01:28:28.062Z,10.35
2023-10-04T01:30:56.774Z,11.70
2023-10-04T01:33:23.823Z,7.88
2023-10-04T01:35:55.255Z,14.80
2023-10-04T01:38:26.269Z,10.10
2023-10-04T01:40:54.480Z,9.50
2023-10-04T01:43:21.628Z,10.25
2023-10-04T01:45:50.095Z,14.90
2023-10-04T01:48:17.158Z,12.95
2023-10-04T01:50:44.663Z,7.60
2023-10-04T01:53:12.226Z,10.18
2023-10-04T01:55:38.793Z,8.95
2023-10-04T01:58:05.837Z,8.00
2023-10-04T02:00:35.128Z,9.93
2023-10-04T02:03:02.833Z,8.68
2023-10-04T02:05:32.973Z,10.27
2023-10-04T02:08:00.274Z,10.02
2023-10-04T02:10:27.484Z,9.43
2023-10-04T02:12:56.904Z,9.60
2023-10-04T02:15:24.019Z,9.77
2023-10-04T02:17:54.589Z,7.93
2023-10-04T02:20:24.671Z,9.10
2023-10-04T02:22:51.800Z,10.55
2023-10-04T02:25:20.677Z,10.88
2023-10-04T02:27:50.410Z,8.15
2023-10-04T02:30:23.295Z,11.20
2023-10-04T02:32:54.621Z,11.00
2023-10-04T02:35:28.177Z,10.65
2023-10-04T02:38:02.007Z,10.57
2023-10-04T02:40:29.451Z,10.07
2023-10-04T02:42:56.709Z,10.15
2023-10-04T02:45:25.987Z,11.77
2023-10-04T02:47:54.151Z,9.05
2023-10-04T02:50:22.524Z,9.55
2023-10-04T02:52:51.409Z,10.68
2023-10-04T02:55:19.393Z,10.93
2023-10-04T02:57:50.639Z,11.27
2023-10-04T03:00:20.479Z,9.18
2023-10-04T03:02:49.449Z,9.90
2023-10-04T03:05:19.885Z,10.65
2023-10-04T03:07:48.470Z,11.77
2023-10-04T03:10:24.700Z,9.43
2023-10-04T03:13:02.098Z,11.85
2023-10-04T03:15:29.436Z,12.82
2023-10-04T03:17:59.077Z,11.85
2023-10-04T03:20:29.371Z,10.43
2023-10-04T03:22:56.891Z,9.23
2023-10-04T03:25:28.355Z,8.33
2023-10-04T03:27:55.280Z,11.43
2023-10-04T03:30:21.981Z,11.30
2023-10-04T03:32:53.936Z,14.25
2023-10-04T03:35:23.782Z,10.25
2023-10-04T03:37:59.948Z,9.30
2023-10-04T03:40:35.869Z,12.55
2023-10-04T03:43:09.190Z,12.68
2023-10-04T03:45:36.963Z,13.10
2023-10-04T03:48:06.578Z,12.40
2023-10-04T03:50:33.186Z,8.75
2023-10-04T03:52:59.685Z,15.35
2023-10-04T03:55:29.039Z,11.63
2023-10-04T03:57:56.098Z,10.48
2023-10-04T04:00:24.667Z,11.13
2023-10-04T04:02:52.098Z,12.52
2023-10-04T04:05:22.728Z,13.02
2023-10-04T04:07:49.740Z,11.48
2023-10-04T04:10:19.942Z,11.75
2023-10-04T04:12:47.925Z,8.50
2023-10-04T04:15:22.002Z,9.17
2023-10-04T04:17:49.614Z,10.68
2023-10-04T04:20:17.039Z,9.00
2023-10-04T04:22:47.279Z,12.25
2023-10-04T04:25:16.694Z,12.70
2023-10-04T04:27:47.021Z,12.90
2023-10-04T04:30:20.641Z,11.25
2023-10-04T04:32:53.797Z,10.75
2023-10-04T04:35:40.546Z,13.93
2023-10-04T04:38:11.852Z,13.07
2023-10-04T04:40:39.886Z,13.07
2023-10-04T04:43:24.267Z,11.65
2023-10-04T04:45:52.943Z,13.43
2023-10-04T04:48:24.924Z,11.07
2023-10-04T04:51:03.800Z,14.23
2023-10-04T04:53:30.461Z,10.48
2023-10-04T04:55:57.060Z,10.65
2023-10-04T04:58:24.279Z,9.32
2023-10-04T05:00:56.341Z,9.05
2023-10-04T05:03:25.228Z,8.25
2023-10-04T05:05:51.828Z,7.80
2023-10-04T05:08:18.908Z,5.93
2023-10-04T05:10:47.070Z,10.95
2023-10-04T05:13:14.693Z,11.40
2023-10-04T05:15:43.812Z,10.95
2023-10-04T05:18:17.204Z,13.55
2023-10-04T05:20:45.031Z,8.70
2023-10-04T05:23:11.652Z,9.85
2023-10-04T05:25:38.698Z,10.93
2023-10-04T05:28:15.197Z,22.35
2023-10-04T05:30:45.950Z,11.40
2023-10-04T05:33:16.829Z,9.65
2023-10-04T05:35:44.855Z,15.00
2023-10-04T05:38:13.325Z,12.63
2023-10-04T05:40:46.440Z,10.90
2023-10-04T05:43:13.220Z,11.65
2023-10-04T05:45:43.329Z,11.27
2023-10-04T05:48:11.554Z,14.73
2023-10-04T05:50:39.766Z,13.13
2023-10-04T05:53:07.702Z,9.77
2023-10-04T05:55:36.109Z,11.90
2023-10-04T05:58:11.113Z,14.68
2023-10-04T06:00:42.022Z,14.00
2023-10-04T06:03:13.181Z,17.08
2023-10-04T06:05:41.632Z,18.83
2023-10-04T06:08:19.310Z,15.15
2023-10-04T06:10:48.189Z,12.20
2023-10-04T06:13:18.296Z,13.57
2023-10-04T06:15:47.400Z,11.90
2023-10-04T06:18:14.775Z,12.35
2023-10-04T06:20:42.254Z,13.43
2023-10-04T06:23:13.408Z,15.05
2023-10-04T06:25:53.634Z,12.85
2023-10-04T06:28:21.421Z,12.60
2023-10-04T06:30:50.000Z,14.13
2023-10-04T06:33:17.601Z,11.18
2023-10-04T06:35:44.905Z,14.15
2023-10-04T06:38:14.011Z,15.38
2023-10-04T06:40:41.170Z,12.82
2023-10-04T06:43:12.040Z,13.98
2023-10-04T06:45:41.043Z,13.43
2023-10-04T06:48:09.189Z,13.75
2023-10-04T06:50:39.700Z,14.07
2023-10-04T06:53:07.462Z,14.32
2023-10-04T06:55:35.289Z,16.13
2023-10-04T06:58:02.120Z,12.27
2023-10-04T07:00:37.606Z,11.63
2023-10-04T07:03:05.412Z,8.00
2023-10-04T07:05:40.804Z,8.90
2023-10-04T07:08:10.165Z,9.10
2023-10-04T07:10:37.784Z,11.13
2023-10-04T07:13:06.344Z,7.43
2023-10-04T07:15:37.035Z,11.27
2023-10-04T07:18:08.309Z,8.30
2023-10-04T07:20:35.730Z,12.90
2023-10-04T07:23:09.023Z,9.82
2023-10-04T07:25:40.777Z,13.75
2023-10-04T07:28:11.108Z,15.57
2023-10-04T07:30:39.587Z,11.10
2023-10-04T07:33:06.536Z,12.45
2023-10-04T07:35:34.247Z,12.13
2023-10-04T07:38:02.209Z,9.80
2023-10-04T07:40:32.214Z,14.85
2023-10-04T07:43:00.586Z,7.47
2023-10-04T07:45:29.545Z,13.05
2023-10-04T07:47:57.469Z,10.85
2023-10-04T07:50:24.849Z,13.37
2023-10-04T07:52:53.701Z,11.82
2023-10-04T07:55:20.360Z,13.93
2023-10-04T07:57:47.966Z,12.93
2023-10-04T08:00:16.506Z,13.10
2023-10-04T08:02:53.712Z,10.50
2023-10-04T08:05:21.910Z,11.75
2023-10-04T08:07:49.823Z,15.65
2023-10-04T08:10:24.350Z,10.15
2023-10-04T08:12:56.046Z,9.77
2023-10-04T08:15:27.044Z,9.55
2023-10-04T08:17:55.459Z,14.48
2023-10-04T08:20:24.338Z,16.30
2023-10-04T08:22:51.655Z,12.52
2023-10-04T08:25:22.526Z,13.20
2023-10-04T08:27:49.427Z,12.23
2023-10-04T08:30:18.002Z,13.27
2023-10-04T08:35:37.191Z,14.00
2023-10-04T08:38:06.343Z,11.25
2023-10-04T08:40:39.391Z,15.32
2023-10-04T08:43:07.396Z,18.98
2023-10-04T08:45:35.746Z,13.57
2023-10-04T08:48:03.736Z,16.73
2023-10-04T08:50:39.561Z,15.80
2023-10-04T08:53:37.544Z,13.30
2023-10-04T08:56:10.005Z,15.18
2023-10-04T08:58:37.899Z,15.43
2023-10-04T09:01:08.168Z,15.32
2023-10-04T09:03:37.131Z,17.00
2023-10-04T09:06:06.572Z,15.88
2023-10-04T09:08:33.474Z,14.77
2023-10-04T09:11:00.071Z,16.60
2023-10-04T09:13:26.875Z,14.88
2023-10-04T09:15:53.606Z,16.83
2023-10-04T09:18:27.946Z,15.80
2023-10-04T09:20:54.795Z,19.52
2023-10-04T09:23:23.824Z,14.43
2023-10-04T09:25:55.220Z,13.85
2023-10-04T09:28:37.494Z,19.98
2023-10-04T09:31:20.065Z,14.32
2023-10-04T09:33:46.729Z,15.80
2023-10-04T09:36:14.855Z,18.25
2023-10-04T09:38:42.419Z,15.93
2023-10-04T09:41:11.501Z,19.77
2023-10-04T09:43:41.089Z,14.32
2023-10-04T09:46:11.960Z,16.90
2023-10-04T09:48:42.318Z,13.63
2023-10-04T09:51:10.620Z,13.98
2023-10-04T09:53:41.650Z,15.98
2023-10-04T09:56:13.564Z,14.55
2023-10-04T09:58:50.910Z,17.67
2023-10-04T10:01:21.489Z,22.73
2023-10-04T10:03:56.877Z,16.52
2023-10-04T10:06:27.907Z,18.05
2023-10-04T10:08:59.979Z,17.58
2023-10-04T10:11:28.514Z,18.38
2023-10-04T10:13:56.638Z,12.25
2023-10-04T10:16:24.731Z,15.32
2023-10-04T10:18:53.571Z,16.52
2023-10-04T10:21:20.701Z,15.18
2023-10-04T10:24:15.445Z,17.30
2023-10-04T10:26:42.247Z,17.73
2023-10-04T10:29:21.647Z,15.55
2023-10-04T10:31:55.175Z,15.32
2023-10-04T10:34:21.898Z,13.63
2023-10-04T10:37:08.238Z,14.13
2023-10-04T10:39:44.322Z,18.65
2023-10-04T10:42:12.871Z,14.32
2023-10-04T10:44:40.749Z,14.35
2023-10-04T10:47:16.077Z,15.95
2023-10-04T10:49:49.453Z,12.75
2023-10-04T10:52:35.782Z,18.55
2023-10-04T10:55:07.691Z,13.15
2023-10-04T10:57:37.729Z,14.80
2023-10-04T11:00:16.381Z,14.88
2023-10-04T11:02:43.312Z,12.67
2023-10-04T11:05:13.178Z,12.98
2023-10-04T11:07:40.155Z,12.25
2023-10-04T11:10:07.818Z,10.82
2023-10-04T11:12:38.873Z,14.67
2023-10-04T11:15:09.534Z,16.73
2023-10-04T11:17:38.972Z,14.05
2023-10-04T11:20:13.264Z,14.18
2023-10-04T11:22:41.173Z,12.65
2023-10-04T11:25:10.070Z,14.67
2023-10-04T11:27:38.479Z,14.77
2023-10-04T11:30:06.692Z,17.00
2023-10-04T11:32:33.487Z,13.10
2023-10-04T11:35:00.639Z,15.52
2023-10-04T11:37:31.054Z,15.63
2023-10-04T11:39:59.060Z,21.52
2023-10-04T11:42:26.358Z,15.18
2023-10-04T11:44:53.141Z,16.38
2023-10-04T11:47:32.792Z,14.43
2023-10-04T11:50:01.802Z,12.10
2023-10-04T11:52:32.990Z,14.50
2023-10-04T11:55:00.448Z,12.85
2023-10-04T11:57:41.384Z,13.52
2023-10-04T12:00:19.137Z,17.52
2023-10-04T12:02:45.817Z,13.88
2023-10-04T12:05:15.432Z,14.30
2023-10-04T12:07:42.126Z,11.07
2023-10-04T12:10:10.988Z,12.68
2023-10-04T12:12:38.357Z,13.00
2023-10-04T12:15:09.258Z,15.23
2023-10-04T12:17:37.510Z,15.93
2023-10-04T12:20:08.432Z,16.57
2023-10-04T12:22:35.958Z,13.07
2023-10-04T12:25:02.698Z,15.00
2023-10-04T12:27:29.314Z,13.18
2023-10-04T12:29:57.996Z,17.95
2023-10-04T12:32:25.059Z,11.70
2023-10-04T12:34:51.607Z,15.55
2023-10-04T12:37:18.212Z,16.00
2023-10-04T12:39:44.917Z,13.45
2023-10-04T12:42:11.530Z,16.05
2023-10-04T12:44:43.147Z,14.25
2023-10-04T12:47:10.030Z,15.05
2023-10-04T12:49:38.274Z,14.13
2023-10-04T12:52:05.484Z,14.40
2023-10-04T12:54:32.596Z,16.85
2023-10-04T12:56:59.227Z,14.38
2023-10-04T12:59:25.836Z,13.25
2023-10-04T13:01:54.661Z,12.18
2023-10-04T13:04:21.477Z,13.40
2023-10-04T13:06:48.236Z,12.85
2023-10-04T13:09:16.809Z,11.33
2023-10-04T13:11:45.588Z,14.43
2023-10-04T13:14:12.403Z,15.43
2023-10-04T13:16:41.396Z,13.40
2023-10-04T13:19:08.268Z,15.18
2023-10-04T13:21:34.958Z,16.98
2023-10-04T13:24:01.455Z,13.17
2023-10-04T13:26:28.003Z,14.10
2023-10-04T13:28:54.500Z,14.45
2023-10-04T13:31:21.032Z,11.82
2023-10-04T13:33:47.714Z,15.75
2023-10-04T13:36:15.365Z,13.60
2023-10-04T13:38:41.918Z,11.82
2023-10-04T13:41:13.224Z,15.80
2023-10-04T13:43:40.079Z,16.07
2023-10-04T13:46:07.378Z,14.38
2023-10-04T13:48:34.196Z,13.70
2023-10-04T13:51:00.928Z,12.38
2023-10-04T13:53:29.896Z,15.68
2023-10-04T13:55:56.529Z,14.13
2023-10-04T13:58:24.878Z,13.85
2023-10-04T14:00:57.916Z,12.57
2023-10-04T14:03:24.960Z,14.43
2023-10-04T14:05:54.812Z,12.35
2023-10-04T14:08:21.794Z,12.65
2023-10-04T14:10:48.894Z,19.80
2023-10-04T14:13:16.401Z,14.73
2023-10-04T14:15:43.445Z,16.50
2023-10-04T14:18:12.103Z,14.50
2023-10-04T14:20:38.793Z,15.13
2023-10-04T14:23:11.572Z,10.52
2023-10-04T14:25:39.675Z,16.30
2023-10-04T14:28:07.505Z,16.25
2023-10-04T14:30:34.163Z,14.23
2023-10-04T14:33:00.907Z,12.07
2023-10-04T14:35:28.762Z,15.02
2023-10-04T14:37:56.801Z,17.25
2023-10-04T14:40:26.373Z,14.97
2023-10-04T14:42:55.930Z,16.33
2023-10-04T14:45:24.006Z,13.48
2023-10-04T14:47:50.964Z,12.98
2023-10-04T14:50:19.058Z,15.00
2023-10-04T14:52:46.817Z,14.65
2023-10-04T14:55:21.293Z,14.27
2023-10-04T14:57:48.162Z,14.27
2023-10-04T15:00:18.254Z,24.20
2023-10-04T15:02:48.221Z,18.02
2023-10-04T15:05:15.106Z,13.88
2023-10-04T15:07:42.014Z,21.65
2023-10-04T15:10:18.237Z,15.75
2023-10-04T15:12:46.543Z,17.88
2023-10-04T15:15:13.202Z,11.48
2023-10-04T15:17:40.153Z,15.48
2023-10-04T15:20:08.005Z,12.88
2023-10-04T15:22:40.275Z,12.90
2023-10-04T15:25:12.961Z,14.35
2023-10-04T15:27:46.515Z,14.35
2023-10-04T15:30:23.767Z,14.57
2023-10-04T15:32:54.533Z,17.75
2023-10-04T15:35:28.765Z,17.85
2023-10-04T15:38:01.202Z,14.50
2023-10-04T15:40:31.908Z,15.63
2023-10-04T15:42:59.859Z,13.27
2023-10-04T15:45:26.604Z,22.90
2023-10-04T15:47:53.609Z,14.90
2023-10-04T15:50:22.308Z,14.13
2023-10-04T15:52:48.865Z,17.60
2023-10-04T15:55:16.304Z,16.13
2023-10-04T15:57:47.307Z,13.38
2023-10-04T16:00:34.307Z,14.95
2023-10-04T16:03:02.322Z,17.73
2023-10-04T16:05:29.849Z,18.08
2023-10-04T16:07:56.773Z,18.48
2023-10-04T16:10:26.801Z,20.60
2023-10-04T16:12:57.452Z,15.93
2023-10-04T16:15:24.615Z,18.23
2023-10-04T16:17:51.525Z,19.57
2023-10-04T16:20:18.696Z,19.40
2023-10-04T16:22:48.682Z,17.33
2023-10-04T16:25:15.275Z,19.02
2023-10-04T16:27:45.813Z,20.57
2023-10-04T16:30:15.747Z,16.67
2023-10-04T16:32:47.649Z,16.00
2023-10-04T16:35:16.636Z,15.33
2023-10-04T16:37:44.406Z,13.85
2023-10-04T16:40:14.274Z,17.48
2023-10-04T16:42:45.176Z,16.27
2023-10-04T16:45:13.862Z,17.27
2023-10-04T16:47:42.783Z,17.52
2023-10-04T16:50:09.734Z,13.90
2023-10-04T16:52:36.273Z,17.70
2023-10-04T16:55:06.560Z,18.88
2023-10-04T16:57:33.395Z,17.93
2023-10-04T16:59:59.936Z,18.52
2023-10-04T17:02:26.488Z,17.90
2023-10-04T17:04:53.060Z,21.63
2023-10-04T17:07:19.714Z,18.80
2023-10-04T17:09:46.601Z,16.15
2023-10-04T17:12:13.168Z,22.15
2023-10-04T17:14:40.658Z,20.05
2023-10-04T17:17:08.839Z,18.70
2023-10-04T17:19:35.898Z,16.02
2023-10-04T17:22:02.990Z,21.63
2023-10-04T17:24:30.081Z,22.47
2023-10-04T17:26:56.702Z,18.60
2023-10-04T17:29:23.237Z,23.55
2023-10-04T17:31:49.851Z,17.23
2023-10-04T17:34:16.473Z,21.25
2023-10-04T17:36:43.929Z,19.00
2023-10-04T17:39:15.100Z,22.75
2023-10-04T17:41:42.130Z,18.15
2023-10-04T17:44:08.964Z,18.25
2023-10-04T17:46:36.386Z,17.95
2023-10-04T17:49:03.256Z,16.92
2023-10-04T17:51:30.576Z,18.45
2023-10-04T17:53:59.424Z,19.52
2023-10-04T17:56:26.550Z,18.30
2023-10-04T17:58:53.077Z,22.40
2023-10-04T18:01:19.805Z,19.67
2023-10-04T18:03:47.486Z,22.65
2023-10-04T18:06:15.873Z,23.02
2023-10-04T18:08:42.429Z,19.05
2023-10-04T18:11:09.152Z,18.65
2023-10-04T18:13:36.142Z,21.00
2023-10-04T18:16:03.659Z,21.23
2023-10-04T18:18:30.694Z,18.30
2023-10-04T18:20:58.191Z,20.63
2023-10-04T18:23:25.417Z,20.48
2023-10-04T18:25:52.010Z,19.33
2023-10-04T18:28:18.515Z,22.60
2023-10-04T18:30:45.194Z,20.67
2023-10-04T18:33:11.987Z,18.20
2023-10-04T18:35:38.661Z,24.05
2023-10-04T18:38:06.459Z,22.77
2023-10-04T18:40:33.039Z,19.50
2023-10-04T18:42:59.637Z,24.75
2023-10-04T18:45:26.369Z,20.35
2023-10-04T18:47:53.005Z,20.73
2023-10-04T18:50:22.597Z,23.58
2023-10-04T18:52:49.789Z,19.92
2023-10-04T18:55:17.634Z,20.60
2023-10-04T18:57:45.791Z,20.35
2023-10-04T19:00:16.734Z,26.13
2023-10-04T19:02:44.184Z,23.08
2023-10-04T19:05:12.358Z,24.02
2023-10-04T19:07:40.532Z,22.30
2023-10-04T19:10:09.703Z,19.30
2023-10-04T19:12:37.117Z,21.52
2023-10-04T19:15:05.634Z,20.77
2023-10-04T19:17:32.485Z,23.30
2023-10-04T19:19:59.266Z,18.58
2023-10-04T19:22:25.810Z,24.50
2023-10-04T19:24:52.406Z,22.73
2023-10-04T19:27:19.125Z,19.90
2023-10-04T19:29:45.787Z,21.38
2023-10-04T19:32:12.903Z,21.35
2023-10-04T19:34:39.670Z,25.17
2023-10-04T19:37:06.269Z,21.38
2023-10-04T19:39:32.884Z,23.60
2023-10-04T19:42:00.366Z,23.65
2023-10-04T19:44:26.966Z,23.27
2023-10-04T19:46:53.746Z,26.97
2023-10-04T19:49:20.388Z,23.52
2023-10-04T19:51:47.480Z,23.73
2023-10-04T19:54:14.099Z,25.95
2023-10-04T19:56:40.649Z,22.25
2023-10-04T19:59:07.150Z,25.20
2023-10-04T20:01:33.838Z,19.85
2023-10-04T20:04:03.519Z,24.77
2023-10-04T20:06:31.722Z,25.80
2023-10-04T20:08:58.351Z,23.08
2023-10-04T20:11:24.915Z,24.75
2023-10-04T20:13:54.114Z,24.10
2023-10-04T20:16:23.806Z,22.30
2023-10-04T20:18:50.784Z,22.15
2023-10-04T20:21:19.804Z,19.48
2023-10-04T20:23:46.624Z,20.67
2023-10-04T20:26:13.294Z,22.67
2023-10-04T20:40:57.705Z,18.52
2023-10-04T20:43:25.413Z,20.30
2023-10-04T20:45:52.518Z,20.50
2023-10-04T20:48:19.102Z,26.08
2023-10-04T20:50:46.108Z,17.38
2023-10-04T20:53:15.048Z,22.92
2023-10-04T20:55:41.944Z,25.77
2023-10-04T20:58:10.128Z,19.58
2023-10-04T21:00:37.771Z,19.45
2023-10-04T21:03:06.153Z,21.38
2023-10-04T21:05:33.116Z,26.83
2023-10-04T21:07:59.665Z,22.00
2023-10-04T21:12:52.910Z,19.92
2023-10-04T21:15:19.560Z,18.02
2023-10-04T21:17:46.295Z,19.35
2023-10-04T21:20:18.707Z,22.92
2023-10-04T21:22:47.291Z,22.92
2023-10-04T21:27:41.932Z,20.27
2023-10-04T21:40:21.192Z,21.90
2023-10-04T21:45:22.006Z,19.50
2023-10-04T21:47:50.007Z,20.92
2023-10-04T21:50:17.500Z,21.42
2023-10-04T21:52:44.116Z,19.70
2023-10-04T21:55:14.438Z,29.05
2023-10-04T21:57:42.361Z,20.00
2023-10-04T22:00:15.628Z,23.17
2023-10-04T22:02:42.264Z,22.55
2023-10-04T22:05:11.007Z,24.75
2023-10-04T22:07:38.271Z,20.40
2023-10-04T22:10:07.134Z,16.45
2023-10-04T22:12:33.683Z,19.40
2023-10-04T22:15:00.868Z,16.92
2023-10-04T22:17:27.352Z,19.25
2023-10-04T22:19:54.032Z,22.73
2023-10-04T22:22:21.246Z,24.95
2023-10-04T22:25:01.201Z,18.17
2023-10-04T22:27:30.696Z,24.35
2023-10-04T22:29:58.545Z,22.67
2023-10-04T22:32:26.864Z,25.67
2023-10-04T22:34:53.633Z,24.42
2023-10-04T22:37:20.429Z,21.50
2023-10-04T22:39:47.078Z,24.92
2023-10-04T22:42:13.820Z,21.65
2023-10-04T22:44:42.043Z,22.88
2023-10-04T22:47:10.917Z,20.85
2023-10-04T22:49:38.364Z,18.65
2023-10-04T22:52:05.314Z,22.92
2023-10-04T22:54:31.991Z,17.00
2023-10-04T22:56:59.504Z,24.58
2023-10-04T22:59:27.094Z,20.63
2023-10-04T23:01:56.013Z,21.92
2023-10-04T23:04:23.008Z,19.77
2023-10-04T23:06:50.518Z,24.30
2023-10-04T23:09:18.335Z,20.50
2023-10-04T23:11:46.905Z,21.92
2023-10-04T23:14:14.174Z,21.45
2023-10-04T23:16:44.465Z,21.10
2023-10-04T23:19:17.673Z,21.17
2023-10-04T23:21:44.657Z,18.92
2023-10-04T23:24:15.581Z,20.55
2023-10-04T23:26:42.940Z,20.88
2023-10-04T23:29:09.895Z,21.75
2023-10-04T23:31:39.558Z,20.20
2023-10-04T23:34:09.728Z,20.00
2023-10-04T23:36:36.709Z,18.90
2023-10-04T23:39:08.146Z,22.25
2023-10-04T23:41:35.794Z,24.67
2023-10-04T23:44:04.812Z,21.35
2023-10-04T23:46:37.753Z,20.20
2023-10-04T23:49:11.729Z,18.52
2023-10-04T23:51:40.380Z,22.10
2023-10-04T23:54:14.117Z,22.38
2023-10-04T23:56:54.310Z,19.60
2023-10-04T23:59:27.522Z,17.67
